createdAt,value
2018-05-31T00:00:21.394Z,49.85
2018-05-31T00:00:53.456Z,49.37
2018-05-31T00:01:25.490Z,49.95
2018-05-31T00:01:57.541Z,49.95
2018-05-31T00:02:29.600Z,50.04
2018-05-31T00:03:01.640Z,49.95
2018-05-31T00:03:33.661Z,49.66
2018-05-31T00:04:05.671Z,50.04
2018-05-31T00:04:37.738Z,49.66
2018-05-31T00:05:09.808Z,49.56
2018-05-31T00:05:41.853Z,49.76
2018-05-31T00:06:13.908Z,49.76
2018-05-31T00:06:45.959Z,49.85
2018-05-31T00:07:17.987Z,49.85
2018-05-31T00:07:50.150Z,49.56
2018-05-31T00:08:22.221Z,49.85
2018-05-31T00:08:54.677Z,49.95
2018-05-31T00:09:27.361Z,49.66
2018-05-31T00:09:59.479Z,49.85
2018-05-31T00:10:32.101Z,49.85
2018-05-31T00:11:04.145Z,49.85
2018-05-31T00:11:36.204Z,49.85
2018-05-31T00:12:08.276Z,49.56
2018-05-31T00:12:40.307Z,49.66
2018-05-31T00:13:12.334Z,49.85
2018-05-31T00:13:44.384Z,50.14
2018-05-31T00:14:16.442Z,49.85
2018-05-31T00:14:48.552Z,50.14
2018-05-31T00:15:20.598Z,49.66
2018-05-31T00:15:52.621Z,49.76
2018-05-31T00:16:24.680Z,49.66
2018-05-31T00:16:56.747Z,50.04
2018-05-31T00:17:28.817Z,50.24
2018-05-31T00:18:00.873Z,49.95
2018-05-31T00:18:32.945Z,50.24
2018-05-31T00:19:04.997Z,50.14
2018-05-31T00:19:37.039Z,50.04
2018-05-31T00:20:09.088Z,49.85
2018-05-31T00:20:41.435Z,50.14
2018-05-31T00:21:13.484Z,50.04
2018-05-31T00:21:45.964Z,50.04
2018-05-31T00:22:18.008Z,50.04
2018-05-31T00:22:50.071Z,50.14
2018-05-31T00:23:22.186Z,49.95
2018-05-31T00:23:54.260Z,50.14
2018-05-31T00:24:26.318Z,50.04
2018-05-31T00:24:58.456Z,50.04
2018-05-31T00:25:30.508Z,50.14
2018-05-31T00:26:02.566Z,50.24
2018-05-31T00:26:34.646Z,49.85
2018-05-31T00:27:06.709Z,49.85
2018-05-31T00:27:38.763Z,50.43
2018-05-31T00:28:10.803Z,50.21
2018-05-31T00:28:42.855Z,50.02
2018-05-31T00:29:14.964Z,49.76
2018-05-31T00:29:46.989Z,50.14
2018-05-31T00:30:19.015Z,50.12
2018-05-31T00:30:51.064Z,50.21
2018-05-31T00:31:23.116Z,50.14
2018-05-31T00:31:55.524Z,50.14
2018-05-31T00:32:27.608Z,49.82
2018-05-31T00:33:01.116Z,50.02
2018-05-31T00:33:33.158Z,50.14
2018-05-31T00:34:05.268Z,50.12
2018-05-31T00:34:37.328Z,50.14
2018-05-31T00:35:09.372Z,50.12
2018-05-31T00:35:41.403Z,50.04
2018-05-31T00:36:13.420Z,50.02
2018-05-31T00:36:45.476Z,50.12
2018-05-31T00:37:17.539Z,50.12
2018-05-31T00:37:49.614Z,50.12
2018-05-31T00:38:21.673Z,49.92
2018-05-31T00:38:53.741Z,50.21
2018-05-31T00:39:25.773Z,50.31
2018-05-31T00:39:57.841Z,49.92
2018-05-31T00:40:29.905Z,50.21
2018-05-31T00:41:01.947Z,49.92
2018-05-31T00:41:33.982Z,49.82
2018-05-31T00:42:06.132Z,50.02
2018-05-31T00:42:38.192Z,49.92
2018-05-31T00:43:10.245Z,50.12
2018-05-31T00:43:42.284Z,50.12
2018-05-31T00:44:14.623Z,50.12
2018-05-31T00:44:46.668Z,50.12
2018-05-31T00:45:18.710Z,49.92
2018-05-31T00:45:50.787Z,50.12
2018-05-31T00:46:22.827Z,50.12
2018-05-31T00:46:54.880Z,50.12
2018-05-31T00:47:26.951Z,49.92
2018-05-31T00:47:59.000Z,49.82
2018-05-31T00:48:31.025Z,49.92
2018-05-31T00:49:03.047Z,50.12
2018-05-31T00:49:35.124Z,49.82
2018-05-31T00:50:07.194Z,50.31
2018-05-31T00:50:39.232Z,50.41
2018-05-31T00:51:11.266Z,50.21
2018-05-31T00:51:43.871Z,50.12
2018-05-31T00:52:15.924Z,50.21
2018-05-31T00:52:47.975Z,50.21
2018-05-31T00:53:20.003Z,50.31
2018-05-31T00:53:52.166Z,50.02
2018-05-31T00:54:24.210Z,49.92
2018-05-31T00:54:56.257Z,49.92
2018-05-31T00:55:28.899Z,50.21
2018-05-31T00:56:00.947Z,50.12
2018-05-31T00:56:33.861Z,50.12
2018-05-31T00:57:05.949Z,50.21
2018-05-31T00:57:38.014Z,50.21
2018-05-31T00:58:10.059Z,50.12
2018-05-31T00:58:42.106Z,50.21
2018-05-31T00:59:14.150Z,50.21
2018-05-31T00:59:46.202Z,50.31
2018-05-31T01:00:18.256Z,50.31
2018-05-31T01:00:50.290Z,50.31
2018-05-31T01:01:22.339Z,50.41
2018-05-31T01:01:54.405Z,50.41
2018-05-31T01:02:26.538Z,50.41
2018-05-31T01:02:58.589Z,50.21
2018-05-31T01:03:30.639Z,50.21
2018-05-31T01:04:02.679Z,50.21
2018-05-31T01:04:34.726Z,50.41
2018-05-31T01:05:06.781Z,50.21
2018-05-31T01:05:38.822Z,50.31
2018-05-31T01:06:11.257Z,50.31
2018-05-31T01:06:43.320Z,50.41
2018-05-31T01:07:15.402Z,50.12
2018-05-31T01:07:48.485Z,50.12
2018-05-31T01:08:20.604Z,50.21
2018-05-31T01:08:53.332Z,50.31
2018-05-31T01:09:25.405Z,50.31
2018-05-31T01:09:57.434Z,50.31
2018-05-31T01:10:29.491Z,50.21
2018-05-31T01:11:01.509Z,50.21
2018-05-31T01:11:33.641Z,50.02
2018-05-31T01:12:05.684Z,50.41
2018-05-31T01:12:37.712Z,50.12
2018-05-31T01:13:09.781Z,50.31
2018-05-31T01:13:41.846Z,50.02
2018-05-31T01:14:13.901Z,50.21
2018-05-31T01:14:46.037Z,50.41
2018-05-31T01:15:18.093Z,50.02
2018-05-31T01:15:50.157Z,50.41
2018-05-31T01:16:22.204Z,50.02
2018-05-31T01:16:54.249Z,50.31
2018-05-31T01:17:26.294Z,50.02
2018-05-31T01:17:58.372Z,50.51
2018-05-31T01:18:30.850Z,50.51
2018-05-31T01:19:02.963Z,50.41
2018-05-31T01:19:35.147Z,50.48
2018-05-31T01:20:07.518Z,50.58
2018-05-31T01:20:39.591Z,50.38
2018-05-31T01:21:11.649Z,50.38
2018-05-31T01:21:43.698Z,50.51
2018-05-31T01:22:15.737Z,50.58
2018-05-31T01:22:47.828Z,49.99
2018-05-31T01:23:20.716Z,50.6
2018-05-31T01:23:52.787Z,50.38
2018-05-31T01:24:24.837Z,49.8
2018-05-31T01:24:56.995Z,49.9
2018-05-31T01:25:29.057Z,50.58
2018-05-31T01:26:01.130Z,50.29
2018-05-31T01:26:33.236Z,50.29
2018-05-31T01:27:05.272Z,50.58
2018-05-31T01:27:37.350Z,50.38
2018-05-31T01:28:09.502Z,50.19
2018-05-31T01:28:41.555Z,50.58
2018-05-31T01:29:13.606Z,50.48
2018-05-31T01:29:45.647Z,49.99
2018-05-31T01:30:17.805Z,50.48
2018-05-31T01:30:49.865Z,50.6
2018-05-31T01:31:22.297Z,50.58
2018-05-31T01:31:54.337Z,50.48
2018-05-31T01:32:26.404Z,50.58
2018-05-31T01:32:58.460Z,50.58
2018-05-31T01:33:30.522Z,50.58
2018-05-31T01:34:02.647Z,50.68
2018-05-31T01:34:34.784Z,50.38
2018-05-31T01:35:06.980Z,50.48
2018-05-31T01:35:39.155Z,50.38
2018-05-31T01:36:11.218Z,50.68
2018-05-31T01:36:43.275Z,50.38
2018-05-31T01:37:15.331Z,50.19
2018-05-31T01:37:47.378Z,50.38
2018-05-31T01:38:19.442Z,50.38
2018-05-31T01:38:51.463Z,50.38
2018-05-31T01:39:23.490Z,50.38
2018-05-31T01:39:55.539Z,50.29
2018-05-31T01:40:27.599Z,50.38
2018-05-31T01:40:59.875Z,50.29
2018-05-31T01:41:31.947Z,50.38
2018-05-31T01:42:04.017Z,50.19
2018-05-31T01:42:37.027Z,50.38
2018-05-31T01:43:09.087Z,50.38
2018-05-31T01:43:41.553Z,49.99
2018-05-31T01:44:13.591Z,49.99
2018-05-31T01:44:45.641Z,50.38
2018-05-31T01:45:17.702Z,50.19
2018-05-31T01:45:49.779Z,50.87
2018-05-31T01:46:21.829Z,50.87
2018-05-31T01:46:53.865Z,50.87
2018-05-31T01:47:25.927Z,50.87
2018-05-31T01:47:58.633Z,50.09
2018-05-31T01:48:30.691Z,49.99
2018-05-31T01:49:02.742Z,50.19
2018-05-31T01:49:34.799Z,50.87
2018-05-31T01:50:06.832Z,50.87
2018-05-31T01:50:38.861Z,50.29
2018-05-31T01:51:10.909Z,50.87
2018-05-31T01:51:42.955Z,50.19
2018-05-31T01:52:15.005Z,50.09
2018-05-31T01:52:47.037Z,50.87
2018-05-31T01:53:19.103Z,50.87
2018-05-31T01:53:52.275Z,50.87
2018-05-31T01:54:24.333Z,50.19
2018-05-31T01:54:56.896Z,50.29
2018-05-31T01:55:28.938Z,50.87
2018-05-31T01:56:02.660Z,50.29
2018-05-31T01:56:34.716Z,50.87
2018-05-31T01:57:06.770Z,50.19
2018-05-31T01:57:38.813Z,50.48
2018-05-31T01:58:10.858Z,50.29
2018-05-31T01:58:42.873Z,50.38
2018-05-31T01:59:14.932Z,50.38
2018-05-31T01:59:47.002Z,50.48
2018-05-31T02:00:19.026Z,50.38
2018-05-31T02:00:51.081Z,50.58
2018-05-31T02:01:23.128Z,50.58
2018-05-31T02:01:55.190Z,50.58
2018-05-31T02:02:27.265Z,50.48
2018-05-31T02:02:59.303Z,50.58
2018-05-31T02:03:31.356Z,50.58
2018-05-31T02:04:03.393Z,50.38
2018-05-31T02:04:35.466Z,50.48
2018-05-31T02:05:07.524Z,50.09
2018-05-31T02:05:40.010Z,49.99
2018-05-31T02:06:12.312Z,50.09
2018-05-31T02:06:44.351Z,50.68
2018-05-31T02:07:16.963Z,50.68
2018-05-31T02:07:49.002Z,50.65
2018-05-31T02:08:21.493Z,50.09
2018-05-31T02:08:53.608Z,50.38
2018-05-31T02:09:25.635Z,50.65
2018-05-31T02:09:57.661Z,50.68
2018-05-31T02:10:29.713Z,50.36
2018-05-31T02:11:01.734Z,50.65
2018-05-31T02:11:33.802Z,50.36
2018-05-31T02:12:05.876Z,50.68
2018-05-31T02:12:37.945Z,50.16
2018-05-31T02:13:09.995Z,50.68
2018-05-31T02:13:42.057Z,50.26
2018-05-31T02:14:14.099Z,50.36
2018-05-31T02:14:46.147Z,50.16
2018-05-31T02:15:18.198Z,50.65
2018-05-31T02:15:50.243Z,50.56
2018-05-31T02:16:22.280Z,50.36
2018-05-31T02:16:54.812Z,50.65
2018-05-31T02:17:27.399Z,50.65
2018-05-31T02:17:59.717Z,50.26
2018-05-31T02:18:32.304Z,50.74
2018-05-31T02:19:04.361Z,50.26
2018-05-31T02:19:37.574Z,50.36
2018-05-31T02:20:09.718Z,50.26
2018-05-31T02:20:41.850Z,50.46
2018-05-31T02:21:13.916Z,50.65
2018-05-31T02:21:45.969Z,50.36
2018-05-31T02:22:18.012Z,50.26
2018-05-31T02:22:50.070Z,50.56
2018-05-31T02:23:22.250Z,50.56
2018-05-31T02:23:55.146Z,50.36
2018-05-31T02:24:27.184Z,50.36
2018-05-31T02:24:59.297Z,50.46
2018-05-31T02:25:31.349Z,50.36
2018-05-31T02:26:03.405Z,50.36
2018-05-31T02:26:35.450Z,50.36
2018-05-31T02:27:07.526Z,50.46
2018-05-31T02:27:39.586Z,50.74
2018-05-31T02:28:11.629Z,50.36
2018-05-31T02:28:43.679Z,50.46
2018-05-31T02:29:16.619Z,50.26
2018-05-31T02:29:48.998Z,50.94
2018-05-31T02:30:21.034Z,50.56
2018-05-31T02:30:53.964Z,50.94
2018-05-31T02:31:26.015Z,51.04
2018-05-31T02:31:59.232Z,50.46
2018-05-31T02:32:31.940Z,50.94
2018-05-31T02:33:03.998Z,50.16
2018-05-31T02:33:36.082Z,50.94
2018-05-31T02:34:08.121Z,50.94
2018-05-31T02:34:40.173Z,50.65
2018-05-31T02:35:12.225Z,50.74
2018-05-31T02:35:44.254Z,50.65
2018-05-31T02:36:16.293Z,50.46
2018-05-31T02:36:48.340Z,50.46
2018-05-31T02:37:20.383Z,50.46
2018-05-31T02:37:52.415Z,50.46
2018-05-31T02:38:24.478Z,50.46
2018-05-31T02:38:56.615Z,50.46
2018-05-31T02:39:28.678Z,50.36
2018-05-31T02:40:00.732Z,50.07
2018-05-31T02:40:32.778Z,50.94
2018-05-31T02:41:04.827Z,50.36
2018-05-31T02:41:36.950Z,50.56
2018-05-31T02:42:09.440Z,50.56
2018-05-31T02:42:42.103Z,50.56
2018-05-31T02:43:14.154Z,50.46
2018-05-31T02:43:46.189Z,50.26
2018-05-31T02:44:18.218Z,50.74
2018-05-31T02:44:50.278Z,50.56
2018-05-31T02:45:22.321Z,50.46
2018-05-31T02:45:54.417Z,50.46
2018-05-31T02:46:26.580Z,50.74
2018-05-31T02:46:58.733Z,50.56
2018-05-31T02:47:30.782Z,50.65
2018-05-31T02:48:02.838Z,50.46
2018-05-31T02:48:34.930Z,50.65
2018-05-31T02:49:06.985Z,50.36
2018-05-31T02:49:39.027Z,50.65
2018-05-31T02:50:11.087Z,50.65
2018-05-31T02:50:43.147Z,50.53
2018-05-31T02:51:15.205Z,50.16
2018-05-31T02:51:47.259Z,50.26
2018-05-31T02:52:19.286Z,50.26
2018-05-31T02:52:51.381Z,50.24
2018-05-31T02:53:23.785Z,50.62
2018-05-31T02:53:55.835Z,50.82
2018-05-31T02:54:27.977Z,50.62
2018-05-31T02:55:00.172Z,50.36
2018-05-31T02:55:32.212Z,50.34
2018-05-31T02:56:04.266Z,50.26
2018-05-31T02:56:36.341Z,50.74
2018-05-31T02:57:08.383Z,50.46
2018-05-31T02:57:40.603Z,50.53
2018-05-31T02:58:12.707Z,50.65
2018-05-31T02:58:44.788Z,50.36
2018-05-31T02:59:16.829Z,50.46
2018-05-31T02:59:48.882Z,50.65
2018-05-31T03:00:20.992Z,50.34
2018-05-31T03:00:53.041Z,50.62
2018-05-31T03:01:25.088Z,50.34
2018-05-31T03:01:57.130Z,50.62
2018-05-31T03:02:29.208Z,50.36
2018-05-31T03:03:01.249Z,50.46
2018-05-31T03:03:33.303Z,50.26
2018-05-31T03:04:05.365Z,50.62
2018-05-31T03:04:37.807Z,50.43
2018-05-31T03:05:10.396Z,50.43
2018-05-31T03:05:43.089Z,50.34
2018-05-31T03:06:15.131Z,50.24
2018-05-31T03:06:47.935Z,50.62
2018-05-31T03:07:20.001Z,50.43
2018-05-31T03:07:52.107Z,50.24
2018-05-31T03:08:24.171Z,50.62
2018-05-31T03:08:56.229Z,50.62
2018-05-31T03:09:28.292Z,50.24
2018-05-31T03:10:00.381Z,50.34
2018-05-31T03:10:32.517Z,50.24
2018-05-31T03:11:04.692Z,50.43
2018-05-31T03:11:36.750Z,50.43
2018-05-31T03:12:08.796Z,50.34
2018-05-31T03:12:40.830Z,50.43
2018-05-31T03:13:12.918Z,50.65
2018-05-31T03:13:44.966Z,50.43
2018-05-31T03:14:17.013Z,50.82
2018-05-31T03:14:49.064Z,50.43
2018-05-31T03:15:21.539Z,50.43
2018-05-31T03:15:53.594Z,50.82
2018-05-31T03:16:25.680Z,50.53
2018-05-31T03:16:58.273Z,50.62
2018-05-31T03:17:30.439Z,50.62
2018-05-31T03:18:02.534Z,50.43
2018-05-31T03:18:34.570Z,50.72
2018-05-31T03:19:06.613Z,50.53
2018-05-31T03:19:38.633Z,50.43
2018-05-31T03:20:10.680Z,50.62
2018-05-31T03:20:42.726Z,50.62
2018-05-31T03:21:14.781Z,50.53
2018-05-31T03:21:46.918Z,50.43
2018-05-31T03:22:19.606Z,50.62
2018-05-31T03:22:51.650Z,50.53
2018-05-31T03:23:23.712Z,50.62
2018-05-31T03:23:55.865Z,50.62
2018-05-31T03:24:27.910Z,50.43
2018-05-31T03:24:59.957Z,50.43
2018-05-31T03:25:32.015Z,50.62
2018-05-31T03:26:04.089Z,50.53
2018-05-31T03:26:36.161Z,50.43
2018-05-31T03:27:09.335Z,50.62
2018-05-31T03:27:41.379Z,50.72
2018-05-31T03:28:14.282Z,50.62
2018-05-31T03:28:46.790Z,50.43
2018-05-31T03:29:19.209Z,50.43
2018-05-31T03:29:51.268Z,50.43
2018-05-31T03:30:23.329Z,50.82
2018-05-31T03:30:55.372Z,50.62
2018-05-31T03:31:27.417Z,50.43
2018-05-31T03:31:59.603Z,50.53
2018-05-31T03:32:31.764Z,50.53
2018-05-31T03:33:03.816Z,50.82
2018-05-31T03:33:35.875Z,50.72
2018-05-31T03:34:07.938Z,50.53
2018-05-31T03:34:39.998Z,50.82
2018-05-31T03:35:12.068Z,50.53
2018-05-31T03:35:44.166Z,50.72
2018-05-31T03:36:16.214Z,50.53
2018-05-31T03:36:48.256Z,50.72
2018-05-31T03:37:20.301Z,50.53
2018-05-31T03:37:52.354Z,50.62
2018-05-31T03:38:24.882Z,50.62
2018-05-31T03:38:57.566Z,50.53
2018-05-31T03:39:30.083Z,50.62
2018-05-31T03:40:02.131Z,50.82
2018-05-31T03:40:34.219Z,50.72
2018-05-31T03:41:06.262Z,50.62
2018-05-31T03:41:38.313Z,50.82
2018-05-31T03:42:10.408Z,50.72
2018-05-31T03:42:42.457Z,50.62
2018-05-31T03:43:14.518Z,50.62
2018-05-31T03:43:46.567Z,50.62
2018-05-31T03:44:18.635Z,50.82
2018-05-31T03:44:50.658Z,50.72
2018-05-31T03:45:22.716Z,50.62
2018-05-31T03:45:54.818Z,50.82
2018-05-31T03:46:26.972Z,50.62
2018-05-31T03:46:59.010Z,50.62
2018-05-31T03:47:31.223Z,50.72
2018-05-31T03:48:03.278Z,50.62
2018-05-31T03:48:35.333Z,50.72
2018-05-31T03:49:07.449Z,50.62
2018-05-31T03:49:39.798Z,50.62
2018-05-31T03:50:11.929Z,50.62
2018-05-31T03:50:44.095Z,50.62
2018-05-31T03:51:16.127Z,50.53
2018-05-31T03:51:48.579Z,50.62
2018-05-31T03:52:20.613Z,50.62
2018-05-31T03:52:52.669Z,50.82
2018-05-31T03:53:24.746Z,50.82
2018-05-31T03:53:56.788Z,50.53
2018-05-31T03:54:28.829Z,51.01
2018-05-31T03:55:00.859Z,50.62
2018-05-31T03:55:32.936Z,50.82
2018-05-31T03:56:05.000Z,50.82
2018-05-31T03:56:37.048Z,50.62
2018-05-31T03:57:09.118Z,50.82
2018-05-31T03:57:41.188Z,50.62
2018-05-31T03:58:13.241Z,50.53
2018-05-31T03:58:45.312Z,50.82
2018-05-31T03:59:17.405Z,50.62
2018-05-31T03:59:49.437Z,50.82
2018-05-31T04:00:21.470Z,50.53
2018-05-31T04:00:54.683Z,50.62
2018-05-31T04:01:27.390Z,50.62
2018-05-31T04:01:59.431Z,50.62
2018-05-31T04:02:31.487Z,50.62
2018-05-31T04:03:03.525Z,50.62
2018-05-31T04:03:35.576Z,50.62
2018-05-31T04:04:07.709Z,50.62
2018-05-31T04:04:39.713Z,50.82
2018-05-31T04:05:11.730Z,50.82
2018-05-31T04:05:43.786Z,50.72
2018-05-31T04:06:15.825Z,50.62
2018-05-31T04:06:47.865Z,50.72
2018-05-31T04:07:19.921Z,50.72
2018-05-31T04:07:51.981Z,50.62
2018-05-31T04:08:24.043Z,50.53
2018-05-31T04:08:56.095Z,50.62
2018-05-31T04:09:28.164Z,50.72
2018-05-31T04:10:00.221Z,50.72
2018-05-31T04:10:32.233Z,50.53
2018-05-31T04:11:04.309Z,50.53
2018-05-31T04:11:36.852Z,50.62
2018-05-31T04:12:09.343Z,50.53
2018-05-31T04:12:42.475Z,50.72
2018-05-31T04:13:15.072Z,50.92
2018-05-31T04:13:47.134Z,50.82
2018-05-31T04:14:19.195Z,50.72
2018-05-31T04:14:51.242Z,50.62
2018-05-31T04:15:23.372Z,50.62
2018-05-31T04:15:55.424Z,50.62
2018-05-31T04:16:27.469Z,50.53
2018-05-31T04:16:59.527Z,50.53
2018-05-31T04:17:31.585Z,50.53
2018-05-31T04:18:03.622Z,50.53
2018-05-31T04:18:35.683Z,50.82
2018-05-31T04:19:07.843Z,50.43
2018-05-31T04:19:39.894Z,50.62
2018-05-31T04:20:11.951Z,50.43
2018-05-31T04:20:43.965Z,50.62
2018-05-31T04:21:16.021Z,50.72
2018-05-31T04:21:48.081Z,50.43
2018-05-31T04:22:20.133Z,50.72
2018-05-31T04:22:52.187Z,50.82
2018-05-31T04:23:24.622Z,50.43
2018-05-31T04:23:56.688Z,50.72
2018-05-31T04:24:29.193Z,50.53
2018-05-31T04:25:01.195Z,50.53
2018-05-31T04:25:34.429Z,50.43
2018-05-31T04:26:06.513Z,50.43
2018-05-31T04:26:38.562Z,50.62
2018-05-31T04:27:10.615Z,50.43
2018-05-31T04:27:42.829Z,50.62
2018-05-31T04:28:14.880Z,50.53
2018-05-31T04:28:46.934Z,50.62
2018-05-31T04:29:18.989Z,50.62
2018-05-31T04:29:51.040Z,50.43
2018-05-31T04:30:24.012Z,50.82
2018-05-31T04:30:56.049Z,50.53
2018-05-31T04:31:28.142Z,50.43
2018-05-31T04:32:00.179Z,50.82
2018-05-31T04:32:32.231Z,50.92
2018-05-31T04:33:04.283Z,50.34
2018-05-31T04:33:36.478Z,50.72
2018-05-31T04:34:09.262Z,50.72
2018-05-31T04:34:41.283Z,50.62
2018-05-31T04:35:13.390Z,50.72
2018-05-31T04:35:45.847Z,50.62
2018-05-31T04:36:18.348Z,50.43
2018-05-31T04:36:50.901Z,50.43
2018-05-31T04:37:23.058Z,50.53
2018-05-31T04:37:55.127Z,50.43
2018-05-31T04:38:27.159Z,50.43
2018-05-31T04:38:59.194Z,50.53
2018-05-31T04:39:31.385Z,50.82
2018-05-31T04:40:03.449Z,50.53
2018-05-31T04:40:35.520Z,50.72
2018-05-31T04:41:07.533Z,50.62
2018-05-31T04:41:40.325Z,50.72
2018-05-31T04:42:12.371Z,50.82
2018-05-31T04:42:44.485Z,50.62
2018-05-31T04:43:16.642Z,50.62
2018-05-31T04:43:48.679Z,50.34
2018-05-31T04:44:20.762Z,50.34
2018-05-31T04:44:52.808Z,50.14
2018-05-31T04:45:24.869Z,50.62
2018-05-31T04:45:57.045Z,50.53
2018-05-31T04:46:29.241Z,50.72
2018-05-31T04:47:01.304Z,50.36
2018-05-31T04:47:33.369Z,50.82
2018-05-31T04:48:05.472Z,50.24
2018-05-31T04:48:37.507Z,50.62
2018-05-31T04:49:09.557Z,50.65
2018-05-31T04:49:41.582Z,50.07
2018-05-31T04:50:13.693Z,50.46
2018-05-31T04:50:45.736Z,50.74
2018-05-31T04:51:17.787Z,50.46
2018-05-31T04:51:49.805Z,50.34
2018-05-31T04:52:21.846Z,50.65
2018-05-31T04:52:53.977Z,50.36
2018-05-31T04:53:26.021Z,50.26
2018-05-31T04:53:58.102Z,50.62
2018-05-31T04:54:30.166Z,50.36
2018-05-31T04:55:02.191Z,50.65
2018-05-31T04:55:34.217Z,50.74
2018-05-31T04:56:06.266Z,50.74
2018-05-31T04:56:38.853Z,50.46
2018-05-31T04:57:10.929Z,50.74
2018-05-31T04:57:42.994Z,50.74
2018-05-31T04:58:15.487Z,50.46
2018-05-31T04:58:47.532Z,50.74
2018-05-31T04:59:20.959Z,50.74
2018-05-31T04:59:53.011Z,50.46
2018-05-31T05:00:25.074Z,50.36
2018-05-31T05:00:57.183Z,50.36
2018-05-31T05:01:29.231Z,50.65
2018-05-31T05:02:01.266Z,50.46
2018-05-31T05:02:33.304Z,50.65
2018-05-31T05:03:05.362Z,50.56
2018-05-31T05:03:37.413Z,50.65
2018-05-31T05:04:09.451Z,50.84
2018-05-31T05:04:41.478Z,50.26
2018-05-31T05:05:13.518Z,50.46
2018-05-31T05:05:45.581Z,50.74
2018-05-31T05:06:17.641Z,50.36
2018-05-31T05:06:49.683Z,50.56
2018-05-31T05:07:21.736Z,50.94
2018-05-31T05:07:54.169Z,50.36
2018-05-31T05:08:26.555Z,50.46
2018-05-31T05:08:59.114Z,50.65
2018-05-31T05:09:31.240Z,50.46
2018-05-31T05:10:03.293Z,50.65
2018-05-31T05:10:36.018Z,50.56
2018-05-31T05:11:08.051Z,50.26
2018-05-31T05:11:40.877Z,50.46
2018-05-31T05:12:12.905Z,50.36
2018-05-31T05:12:44.939Z,50.36
2018-05-31T05:13:17.068Z,50.36
2018-05-31T05:13:49.142Z,50.16
2018-05-31T05:14:21.202Z,50.56
2018-05-31T05:14:53.263Z,50.56
2018-05-31T05:15:25.332Z,50.68
2018-05-31T05:15:57.964Z,50.36
2018-05-31T05:16:30.015Z,50.68
2018-05-31T05:17:02.072Z,50.68
2018-05-31T05:17:34.141Z,50.77
2018-05-31T05:18:06.872Z,50.58
2018-05-31T05:18:38.910Z,50.48
2018-05-31T05:19:11.142Z,50.68
2018-05-31T05:19:43.266Z,50.68
2018-05-31T05:20:15.737Z,50.77
2018-05-31T05:20:48.449Z,50.68
2018-05-31T05:21:20.506Z,50.68
2018-05-31T05:21:52.543Z,50.58
2018-05-31T05:22:24.647Z,50.68
2018-05-31T05:22:56.736Z,50.58
2018-05-31T05:23:28.775Z,50.58
2018-05-31T05:24:00.820Z,50.38
2018-05-31T05:24:33.053Z,50.38
2018-05-31T05:25:05.097Z,50.48
2018-05-31T05:25:37.127Z,50.77
2018-05-31T05:26:09.200Z,50.29
2018-05-31T05:26:41.241Z,50.77
2018-05-31T05:27:13.486Z,50.87
2018-05-31T05:27:45.677Z,50.77
2018-05-31T05:28:17.907Z,50.87
2018-05-31T05:28:50.233Z,50.19
2018-05-31T05:29:22.263Z,50.09
2018-05-31T05:29:54.284Z,50.89
2018-05-31T05:30:26.343Z,50.38
2018-05-31T05:30:58.388Z,50.19
2018-05-31T05:31:30.421Z,50.29
2018-05-31T05:32:03.384Z,50.48
2018-05-31T05:32:35.461Z,50.29
2018-05-31T05:33:08.254Z,50.51
2018-05-31T05:33:40.426Z,50.38
2018-05-31T05:34:12.861Z,50.51
2018-05-31T05:34:44.908Z,49.92
2018-05-31T05:35:17.688Z,50.6
2018-05-31T05:35:49.738Z,50.41
2018-05-31T05:36:21.785Z,50.41
2018-05-31T05:36:53.813Z,50.41
2018-05-31T05:37:26.395Z,50.31
2018-05-31T05:37:58.881Z,50.51
2018-05-31T05:38:30.913Z,50.51
2018-05-31T05:39:02.967Z,50.41
2018-05-31T05:39:35.499Z,50.51
2018-05-31T05:40:08.303Z,50.31
2018-05-31T05:40:40.734Z,50.31
2018-05-31T05:41:13.256Z,50.41
2018-05-31T05:41:45.318Z,50.41
2018-05-31T05:42:17.489Z,50.6
2018-05-31T05:42:49.566Z,50.21
2018-05-31T05:43:21.669Z,50.31
